createdAt,value
2022-10-13T00:01:16.079Z,4.93
2022-10-13T00:03:47.565Z,4.90
2022-10-13T00:06:17.451Z,4.55
2022-10-13T00:08:45.298Z,4.63
2022-10-13T00:11:14.075Z,5.38
2022-10-13T00:13:41.796Z,4.85
2022-10-13T00:16:10.101Z,3.90
2022-10-13T00:18:38.075Z,5.47
2022-10-13T00:21:11.043Z,4.43
2022-10-13T00:23:39.569Z,5.32
2022-10-13T00:26:10.317Z,5.53
2022-10-13T00:28:38.339Z,4.15
2022-10-13T00:31:19.518Z,4.32
2022-10-13T00:33:47.219Z,5.72
2022-10-13T00:36:14.977Z,4.47
2022-10-13T00:38:42.623Z,4.28
2022-10-13T00:41:09.932Z,5.80
2022-10-13T00:43:57.189Z,3.88
2022-10-13T00:46:27.296Z,5.15
2022-10-13T00:48:55.694Z,5.13
2022-10-13T00:51:27.640Z,4.13
2022-10-13T00:53:56.416Z,5.10
2022-10-13T00:56:26.258Z,5.10
2022-10-13T00:58:55.097Z,5.22
2022-10-13T01:01:22.931Z,4.85
2022-10-13T01:03:50.146Z,3.60
2022-10-13T01:06:23.443Z,5.30
2022-10-13T01:08:51.433Z,5.33
2022-10-13T01:11:51.359Z,5.30
2022-10-13T01:14:36.263Z,4.22
2022-10-13T01:17:06.379Z,3.90
2022-10-13T01:19:58.473Z,4.63
2022-10-13T01:22:57.390Z,6.07
2022-10-13T01:26:01.408Z,5.65
2022-10-13T01:28:53.356Z,5.55
2022-10-13T01:31:29.426Z,4.47
2022-10-13T01:34:24.376Z,5.30
2022-10-13T01:37:16.361Z,6.07
2022-10-13T01:40:05.806Z,4.55
2022-10-13T01:43:16.084Z,4.90
2022-10-13T01:46:02.247Z,3.97
2022-10-13T01:48:29.974Z,5.05
2022-10-13T01:50:59.846Z,6.70
2022-10-13T01:53:28.806Z,4.55
2022-10-13T01:55:59.488Z,4.75
2022-10-13T01:58:30.544Z,5.40
2022-10-13T02:01:10.355Z,5.38
2022-10-13T02:03:52.784Z,4.97
2022-10-13T02:06:30.891Z,4.57
2022-10-13T02:09:20.110Z,4.55
2022-10-13T02:12:18.505Z,5.55
2022-10-13T02:14:48.479Z,5.22
2022-10-13T02:17:16.387Z,4.60
2022-10-13T02:19:44.208Z,5.18
2022-10-13T02:22:14.872Z,6.00
2022-10-13T02:24:42.599Z,4.93
2022-10-13T02:27:10.131Z,4.28
2022-10-13T02:29:54.208Z,4.25
2022-10-13T02:32:22.669Z,5.87
2022-10-13T02:34:50.924Z,4.32
2022-10-13T02:37:18.517Z,5.50
2022-10-13T02:39:45.741Z,5.43
2022-10-13T02:42:13.045Z,4.32
2022-10-13T02:44:40.353Z,5.10
2022-10-13T02:47:07.607Z,4.75
2022-10-13T02:49:34.887Z,5.07
2022-10-13T02:52:02.143Z,4.30
2022-10-13T02:54:29.582Z,4.85
2022-10-13T02:56:56.863Z,5.15
2022-10-13T02:59:24.055Z,6.00
2022-10-13T03:01:51.273Z,5.30
2022-10-13T03:04:18.477Z,4.82
2022-10-13T03:06:45.783Z,5.90
2022-10-13T03:09:12.982Z,5.82
2022-10-13T03:11:40.247Z,5.15
2022-10-13T03:14:07.475Z,5.28
2022-10-13T03:16:34.717Z,4.80
2022-10-13T03:19:02.013Z,5.90
2022-10-13T03:21:29.439Z,4.57
2022-10-13T03:23:56.736Z,4.93
2022-10-13T03:26:23.960Z,5.13
2022-10-13T03:28:52.296Z,5.35
2022-10-13T03:31:19.659Z,5.47
2022-10-13T03:33:47.158Z,4.22
2022-10-13T03:36:14.446Z,5.18
2022-10-13T03:38:41.892Z,4.38
2022-10-13T03:41:11.461Z,4.95
2022-10-13T03:43:39.068Z,4.35
2022-10-13T03:46:08.091Z,5.82
2022-10-13T03:48:36.345Z,5.07
2022-10-13T03:51:15.379Z,5.70
2022-10-13T03:53:42.620Z,4.40
2022-10-13T03:56:15.226Z,4.65
2022-10-13T03:58:42.967Z,3.95
2022-10-13T04:01:12.889Z,3.97
2022-10-13T04:03:40.258Z,4.53
2022-10-13T04:06:07.650Z,4.30
2022-10-13T04:08:35.180Z,5.88
2022-10-13T04:11:07.708Z,4.10
2022-10-13T04:13:35.450Z,4.85
2022-10-13T04:16:14.565Z,5.03
2022-10-13T04:18:44.642Z,4.15
2022-10-13T04:21:15.565Z,4.30
2022-10-13T04:23:43.031Z,4.20
2022-10-13T04:26:20.578Z,4.68
2022-10-13T04:28:49.382Z,4.70
2022-10-13T04:31:17.007Z,5.53
2022-10-13T04:33:45.123Z,5.00
2022-10-13T04:36:14.086Z,6.43
2022-10-13T04:38:42.380Z,4.32
2022-10-13T04:41:10.673Z,4.90
2022-10-13T04:43:38.034Z,4.88
2022-10-13T04:46:12.506Z,6.32
2022-10-13T04:48:39.989Z,4.10
2022-10-13T04:51:13.625Z,4.28
2022-10-13T04:53:41.709Z,4.10
2022-10-13T04:56:11.687Z,5.30
2022-10-13T04:58:40.290Z,5.60
2022-10-13T05:01:11.944Z,5.43
2022-10-13T05:03:39.351Z,4.65
2022-10-13T05:06:06.881Z,3.50
2022-10-13T05:08:34.584Z,3.78
2022-10-13T05:11:02.707Z,5.00
2022-10-13T05:13:30.717Z,4.68
2022-10-13T05:15:58.411Z,4.30
2022-10-13T05:18:25.692Z,4.10
2022-10-13T05:20:52.928Z,4.10
2022-10-13T05:23:20.141Z,3.75
2022-10-13T05:25:47.426Z,3.80
2022-10-13T05:28:14.967Z,3.70
2022-10-13T05:30:42.278Z,5.05
2022-10-13T05:33:09.874Z,3.95
2022-10-13T05:35:37.128Z,5.38
2022-10-13T05:38:04.391Z,5.03
2022-10-13T05:40:31.684Z,4.82
2022-10-13T05:42:58.913Z,3.63
2022-10-13T05:45:29.728Z,5.40
2022-10-13T05:47:56.998Z,3.90
2022-10-13T05:50:24.407Z,3.40
2022-10-13T05:52:52.297Z,3.95
2022-10-13T05:55:20.109Z,5.63
2022-10-13T05:57:51.420Z,5.35
2022-10-13T06:00:20.445Z,4.78
2022-10-13T06:03:05.912Z,4.55
2022-10-13T06:05:33.345Z,5.00
2022-10-13T06:08:00.915Z,3.90
2022-10-13T06:10:28.321Z,4.47
2022-10-13T06:12:55.555Z,4.32
2022-10-13T06:15:27.808Z,4.60
2022-10-13T06:17:55.452Z,5.88
2022-10-13T06:20:22.996Z,4.80
2022-10-13T06:22:50.991Z,7.38
2022-10-13T06:25:18.320Z,5.60
2022-10-13T06:27:45.672Z,6.35
2022-10-13T06:30:13.530Z,8.52
2022-10-13T06:32:40.728Z,5.35
2022-10-13T06:35:08.402Z,6.85
2022-10-13T06:37:35.644Z,6.35
2022-10-13T06:40:02.889Z,4.70
2022-10-13T06:42:31.811Z,3.92
2022-10-13T06:44:59.042Z,4.68
2022-10-13T06:47:26.370Z,4.95
2022-10-13T06:49:53.716Z,3.85
2022-10-13T06:52:21.255Z,4.03
2022-10-13T06:54:48.811Z,3.63
2022-10-13T06:57:16.125Z,4.03
2022-10-13T06:59:44.448Z,3.78
2022-10-13T07:02:12.050Z,4.90
2022-10-13T07:04:39.279Z,3.53
2022-10-13T07:07:06.480Z,4.75
2022-10-13T07:09:33.719Z,3.88
2022-10-13T07:12:00.941Z,4.07
2022-10-13T07:14:28.188Z,4.43
2022-10-13T07:16:55.414Z,3.92
2022-10-13T07:19:22.678Z,4.22
2022-10-13T07:21:49.938Z,5.38
2022-10-13T07:24:17.160Z,4.00
2022-10-13T07:26:45.131Z,3.38
2022-10-13T07:29:12.414Z,5.20
2022-10-13T07:31:39.649Z,3.83
2022-10-13T07:34:08.419Z,3.75
2022-10-13T07:36:35.768Z,3.40
2022-10-13T07:39:03.894Z,4.40
2022-10-13T07:41:31.176Z,4.78
2022-10-13T07:43:58.741Z,2.97
2022-10-13T07:46:26.242Z,4.10
2022-10-13T07:48:54.900Z,4.15
2022-10-13T07:51:23.391Z,3.50
2022-10-13T07:53:50.685Z,3.72
2022-10-13T07:56:18.071Z,4.95
2022-10-13T07:58:47.243Z,4.38
2022-10-13T08:01:15.748Z,5.70
2022-10-13T08:03:47.140Z,4.88
2022-10-13T08:06:17.888Z,4.15
2022-10-13T08:08:45.700Z,5.15
2022-10-13T08:11:16.651Z,6.00
2022-10-13T08:13:48.374Z,4.38
2022-10-13T08:16:15.698Z,4.05
2022-10-13T08:18:43.004Z,6.60
2022-10-13T08:24:01.850Z,4.40
2022-10-13T08:26:29.662Z,4.10
2022-10-13T08:29:16.823Z,4.60
2022-10-13T08:31:44.720Z,5.43
2022-10-13T08:34:12.423Z,4.20
2022-10-13T08:36:40.474Z,6.47
2022-10-13T08:39:08.148Z,4.72
2022-10-13T08:41:43.992Z,4.68
2022-10-13T08:47:27.917Z,4.85
2022-10-13T08:50:02.298Z,4.80
2022-10-13T08:53:03.767Z,4.18
2022-10-13T08:55:44.565Z,9.30
2022-10-13T08:58:33.529Z,5.15
2022-10-13T09:01:14.653Z,6.00
2022-10-13T09:03:58.174Z,5.70
2022-10-13T09:06:37.453Z,5.43
2022-10-13T09:09:10.937Z,3.92
2022-10-13T09:11:43.893Z,5.25
2022-10-13T09:14:20.331Z,6.32
2022-10-13T09:16:47.802Z,6.93
2022-10-13T09:19:22.589Z,6.85
2022-10-13T09:21:58.478Z,4.53
2022-10-13T09:24:27.426Z,6.32
2022-10-13T09:27:14.564Z,6.95
2022-10-13T09:29:43.135Z,5.07
2022-10-13T09:32:23.873Z,5.75
2022-10-13T09:34:52.804Z,6.18
2022-10-13T09:37:24.996Z,5.97
2022-10-13T09:40:20.213Z,5.45
2022-10-13T09:42:53.291Z,5.90
2022-10-13T09:45:24.327Z,4.75
2022-10-13T09:48:06.195Z,4.57
2022-10-13T09:50:35.880Z,5.28
2022-10-13T09:53:24.261Z,4.32
2022-10-13T09:56:09.075Z,4.90
2022-10-13T09:58:42.315Z,4.97
2022-10-13T10:01:24.054Z,5.38
2022-10-13T10:03:51.806Z,5.03
2022-10-13T10:06:19.983Z,5.97
2022-10-13T10:09:04.159Z,4.93
2022-10-13T10:11:42.398Z,4.72
2022-10-13T10:14:22.015Z,5.97
2022-10-13T10:16:55.570Z,5.13
2022-10-13T10:19:39.100Z,5.43
2022-10-13T10:22:30.220Z,6.18
2022-10-13T10:25:25.890Z,5.75
2022-10-13T10:28:00.055Z,4.18
2022-10-13T10:30:30.480Z,5.07
2022-10-13T10:33:11.395Z,5.75
2022-10-13T10:35:44.385Z,7.38
2022-10-13T10:38:23.752Z,6.47
2022-10-13T10:41:05.257Z,5.50
2022-10-13T10:44:10.907Z,7.95
2022-10-13T10:46:49.156Z,10.13
2022-10-13T10:49:33.265Z,10.95
2022-10-13T10:52:06.977Z,9.90
2022-10-13T10:55:19.871Z,9.77
2022-10-13T10:58:12.518Z,10.85
2022-10-13T11:00:51.984Z,10.23
2022-10-13T11:03:56.750Z,9.18
2022-10-13T11:06:32.524Z,8.80
2022-10-13T11:08:59.860Z,11.20
2022-10-13T11:11:29.381Z,9.82
2022-10-13T11:14:06.535Z,9.65
2022-10-13T11:16:38.569Z,12.90
2022-10-13T11:19:33.498Z,11.55
2022-10-13T11:22:00.694Z,14.73
2022-10-13T11:24:38.842Z,13.65
2022-10-13T11:27:11.714Z,11.15
2022-10-13T11:29:46.415Z,12.73
2022-10-13T11:32:34.999Z,11.65
2022-10-13T11:35:08.355Z,11.35
2022-10-13T11:38:06.887Z,12.55
2022-10-13T11:41:16.339Z,10.02
2022-10-13T11:44:06.680Z,12.38
2022-10-13T11:47:02.746Z,11.63
2022-10-13T11:49:57.674Z,11.32
2022-10-13T11:53:22.639Z,12.30
2022-10-13T11:55:53.607Z,9.85
2022-10-13T11:58:30.863Z,13.32
2022-10-13T12:01:06.333Z,12.57
2022-10-13T12:03:37.153Z,9.93
2022-10-13T12:06:23.605Z,14.32
2022-10-13T12:08:52.622Z,11.15
2022-10-13T12:11:32.278Z,10.98
2022-10-13T12:14:00.927Z,9.82
2022-10-13T12:16:29.518Z,9.18
2022-10-13T12:19:21.153Z,10.85
2022-10-13T12:21:54.034Z,7.78
2022-10-13T12:24:25.079Z,10.52
2022-10-13T12:26:53.050Z,10.50
2022-10-13T12:29:25.261Z,9.32
2022-10-13T12:31:53.282Z,9.40
2022-10-13T12:34:23.515Z,9.27
2022-10-13T12:36:57.195Z,8.07
2022-10-13T12:39:25.536Z,9.20
2022-10-13T12:41:54.076Z,10.73
2022-10-13T12:44:32.773Z,8.52
2022-10-13T12:47:03.808Z,7.57
2022-10-13T12:49:40.510Z,9.57
2022-10-13T12:52:17.658Z,8.43
2022-10-13T12:54:50.969Z,7.93
2022-10-13T12:57:19.740Z,9.43
2022-10-13T12:59:47.237Z,8.25
2022-10-13T13:02:30.995Z,9.18
2022-10-13T13:04:58.893Z,15.82
2022-10-13T13:07:32.771Z,20.33
2022-10-13T13:10:09.080Z,21.17
2022-10-13T13:12:37.758Z,22.20
2022-10-13T13:15:32.110Z,26.80
2022-10-13T13:18:24.849Z,29.35
2022-10-13T13:20:52.883Z,36.70
2022-10-13T13:23:22.112Z,36.00
2022-10-13T13:26:02.139Z,35.20
2022-10-13T13:28:32.466Z,34.15
2022-10-13T13:31:00.205Z,33.42
2022-10-13T13:33:27.496Z,33.88
2022-10-13T13:35:55.130Z,35.20
2022-10-13T13:38:22.397Z,48.25
2022-10-13T13:40:49.849Z,48.58
2022-10-13T13:43:18.206Z,40.83
2022-10-13T13:45:45.597Z,34.53
2022-10-13T13:48:13.259Z,30.73
2022-10-13T13:50:41.118Z,26.55
2022-10-13T13:53:09.438Z,35.60
2022-10-13T13:55:37.887Z,35.80
2022-10-13T13:58:05.171Z,30.30
2022-10-13T14:00:32.415Z,38.70
2022-10-13T14:02:59.665Z,29.23
2022-10-13T14:05:26.964Z,31.92
2022-10-13T14:07:56.678Z,25.63
2022-10-13T14:10:25.006Z,32.10
2022-10-13T14:12:53.048Z,35.53
2022-10-13T14:15:21.043Z,29.92
2022-10-13T14:17:51.471Z,27.67
2022-10-13T14:20:19.139Z,28.33
2022-10-13T14:22:46.360Z,25.73
2022-10-13T14:25:14.213Z,25.70
2022-10-13T14:27:41.589Z,28.27
2022-10-13T14:30:10.013Z,21.95
2022-10-13T14:32:37.931Z,19.23
2022-10-13T14:35:05.907Z,22.13
2022-10-13T14:37:34.010Z,15.30
2022-10-13T14:40:01.721Z,14.98
2022-10-13T14:42:29.048Z,18.42
2022-10-13T14:44:56.302Z,17.48
2022-10-13T14:47:23.896Z,17.92
2022-10-13T14:49:51.339Z,18.17
2022-10-13T14:52:18.595Z,12.95
2022-10-13T14:54:45.938Z,20.33
2022-10-13T14:57:16.001Z,10.48
2022-10-13T14:59:43.692Z,15.40
2022-10-13T15:02:14.479Z,16.55
2022-10-13T15:04:42.093Z,14.80
2022-10-13T15:07:09.362Z,14.23
2022-10-13T15:09:52.643Z,15.50
2022-10-13T15:12:24.182Z,15.50
2022-10-13T15:14:51.509Z,11.02
2022-10-13T15:17:18.760Z,10.55
2022-10-13T15:19:46.218Z,9.73
2022-10-13T15:22:13.500Z,13.38
2022-10-13T15:24:40.719Z,16.58
2022-10-13T15:27:07.940Z,13.43
2022-10-13T15:29:35.191Z,11.85
2022-10-13T15:32:12.173Z,11.48
2022-10-13T15:34:40.235Z,11.63
2022-10-13T15:37:07.822Z,12.32
2022-10-13T15:39:35.114Z,12.02
2022-10-13T15:42:02.698Z,7.05
2022-10-13T15:44:51.025Z,6.32
2022-10-13T15:47:18.493Z,5.82
2022-10-13T15:49:45.758Z,5.88
2022-10-13T15:52:13.100Z,8.35
2022-10-13T15:54:40.918Z,7.68
2022-10-13T15:57:08.687Z,7.25
2022-10-13T15:59:35.944Z,8.02
2022-10-13T16:02:03.289Z,7.10
2022-10-13T16:04:34.815Z,10.13
2022-10-13T16:07:05.068Z,6.88
2022-10-13T16:09:32.343Z,7.10
2022-10-13T16:11:59.591Z,6.10
2022-10-13T16:14:26.824Z,5.30
2022-10-13T16:16:54.100Z,6.13
2022-10-13T16:19:21.428Z,5.72
2022-10-13T16:21:48.704Z,5.50
2022-10-13T16:24:15.952Z,7.38
2022-10-13T16:26:43.273Z,7.60
2022-10-13T16:29:10.575Z,7.47
2022-10-13T16:31:37.950Z,6.78
2022-10-13T16:34:05.240Z,5.45
2022-10-13T16:36:32.654Z,10.38
2022-10-13T16:39:00.011Z,7.93
2022-10-13T16:41:27.204Z,9.02
2022-10-13T16:43:54.908Z,10.65
2022-10-13T16:46:22.179Z,11.13
2022-10-13T16:48:49.765Z,9.77
2022-10-13T16:51:22.929Z,14.95
2022-10-13T16:53:52.665Z,8.90
2022-10-13T16:56:22.269Z,9.43
2022-10-13T16:58:54.691Z,15.18
2022-10-13T17:01:22.704Z,12.65
2022-10-13T17:03:51.058Z,12.02
2022-10-13T17:06:20.266Z,13.20
2022-10-13T17:08:47.620Z,15.68
2022-10-13T17:11:18.434Z,13.80
2022-10-13T17:13:46.201Z,12.77
2022-10-13T17:16:13.446Z,11.98
2022-10-13T17:18:40.770Z,10.20
2022-10-13T17:21:10.331Z,12.88
2022-10-13T17:23:37.916Z,12.18
2022-10-13T17:26:08.042Z,11.25
2022-10-13T17:28:36.734Z,10.93
2022-10-13T17:31:05.696Z,11.32
2022-10-13T17:33:34.971Z,10.70
2022-10-13T17:36:15.714Z,8.13
2022-10-13T17:38:43.893Z,8.82
2022-10-13T17:41:12.066Z,10.68
2022-10-13T17:43:41.239Z,8.90
2022-10-13T17:46:38.690Z,8.50
2022-10-13T17:49:12.310Z,11.77
2022-10-13T17:51:44.117Z,8.93
2022-10-13T17:54:15.994Z,10.63
2022-10-13T17:56:44.347Z,7.90
2022-10-13T17:59:11.631Z,8.13
2022-10-13T18:01:39.347Z,13.48
2022-10-13T18:04:13.747Z,9.52
2022-10-13T18:06:45.579Z,11.77
2022-10-13T18:09:15.920Z,7.60
2022-10-13T18:11:49.811Z,5.47
2022-10-13T18:14:18.561Z,7.18
2022-10-13T18:16:46.840Z,6.03
2022-10-13T18:19:14.353Z,7.82
2022-10-13T18:21:41.832Z,10.30
2022-10-13T18:24:11.521Z,6.88
2022-10-13T18:26:38.881Z,10.05
2022-10-13T18:29:07.657Z,5.70
2022-10-13T18:31:37.314Z,11.48
2022-10-13T18:34:07.055Z,6.05
2022-10-13T18:36:40.096Z,6.97
2022-10-13T18:39:12.931Z,7.20
2022-10-13T18:41:40.716Z,8.05
2022-10-13T18:44:08.531Z,7.45
2022-10-13T18:46:37.178Z,6.20
2022-10-13T18:49:10.770Z,6.57
2022-10-13T18:51:38.094Z,6.25
2022-10-13T18:54:06.589Z,5.88
2022-10-13T18:56:36.655Z,6.25
2022-10-13T18:59:05.791Z,5.93
2022-10-13T19:01:34.929Z,6.00
2022-10-13T19:04:02.297Z,5.18
2022-10-13T19:06:32.217Z,6.68
2022-10-13T19:09:05.894Z,6.35
2022-10-13T19:11:34.155Z,5.57
2022-10-13T19:14:02.569Z,6.72
2022-10-13T19:16:31.718Z,6.65
2022-10-13T19:18:59.317Z,5.40
2022-10-13T19:21:27.193Z,6.72
2022-10-13T19:23:55.115Z,8.73
2022-10-13T19:26:28.321Z,5.53
2022-10-13T19:28:57.730Z,5.95
2022-10-13T19:31:27.516Z,5.43
2022-10-13T19:33:55.319Z,7.10
2022-10-13T19:36:32.247Z,5.53
2022-10-13T19:39:00.367Z,8.48
2022-10-13T19:41:29.581Z,6.72
2022-10-13T19:43:57.371Z,5.55
2022-10-13T19:46:24.671Z,5.78
2022-10-13T19:48:52.278Z,5.13
2022-10-13T19:51:19.612Z,5.03
2022-10-13T19:53:46.979Z,6.40
2022-10-13T19:56:28.842Z,4.63
2022-10-13T19:58:56.123Z,5.55
2022-10-13T20:01:24.124Z,5.53
2022-10-13T20:03:51.926Z,4.60
2022-10-13T20:06:20.539Z,6.15
2022-10-13T20:08:48.359Z,5.20
2022-10-13T20:11:23.030Z,4.07
2022-10-13T20:13:51.481Z,6.63
2022-10-13T20:16:22.022Z,4.93
2022-10-13T20:18:57.778Z,5.43
2022-10-13T20:21:26.393Z,3.80
2022-10-13T20:23:54.424Z,6.35
2022-10-13T20:26:22.457Z,4.22
2022-10-13T20:28:51.524Z,5.80
2022-10-13T20:31:21.825Z,4.18
2022-10-13T20:33:52.858Z,5.00
2022-10-13T20:36:20.301Z,3.75
2022-10-13T20:38:49.161Z,4.82
2022-10-13T20:41:21.084Z,3.78
2022-10-13T20:43:49.584Z,3.60
2022-10-13T20:46:18.237Z,4.70
2022-10-13T20:49:09.486Z,4.65
2022-10-13T20:51:33.109Z,7.72
2022-10-13T20:54:00.371Z,5.68
2022-10-13T20:56:27.811Z,3.75
2022-10-13T20:58:55.313Z,4.45
2022-10-13T21:01:23.763Z,4.65
2022-10-13T21:03:55.125Z,3.33
2022-10-13T21:06:24.598Z,3.28
2022-10-13T21:08:52.955Z,2.97
2022-10-13T21:11:21.856Z,3.60
2022-10-13T21:13:50.341Z,3.25
2022-10-13T21:16:24.055Z,3.65
2022-10-13T21:18:52.119Z,4.20
2022-10-13T21:21:25.087Z,3.08
2022-10-13T21:23:58.009Z,3.22
2022-10-13T21:26:27.482Z,3.70
2022-10-13T21:28:55.339Z,3.22
2022-10-13T21:31:24.336Z,4.88
2022-10-13T21:33:52.019Z,2.88
2022-10-13T21:36:25.078Z,3.50
2022-10-13T21:38:54.928Z,2.97
2022-10-13T21:41:22.937Z,4.07
2022-10-13T21:43:51.218Z,3.42
2022-10-13T21:46:24.490Z,3.50
2022-10-13T21:48:54.055Z,3.35
2022-10-13T21:51:24.776Z,4.32
2022-10-13T21:53:54.195Z,3.67
2022-10-13T21:56:22.496Z,3.72
2022-10-13T21:58:50.037Z,3.60
2022-10-13T22:01:18.741Z,3.88
2022-10-13T22:03:47.201Z,3.97
2022-10-13T22:06:19.357Z,4.38
2022-10-13T22:08:49.406Z,3.42
2022-10-13T22:11:18.087Z,4.82
2022-10-13T22:13:45.632Z,3.45
2022-10-13T22:16:17.888Z,4.35
2022-10-13T22:18:45.592Z,4.30
2022-10-13T22:21:18.906Z,3.97
2022-10-13T22:23:47.187Z,4.00
2022-10-13T22:26:16.945Z,4.05
2022-10-13T22:28:44.769Z,5.40
2022-10-13T22:31:13.360Z,4.47
2022-10-13T22:33:42.372Z,4.25
2022-10-13T22:36:18.898Z,4.90
2022-10-13T22:38:47.613Z,4.30
2022-10-13T22:41:16.750Z,5.38
2022-10-13T22:43:44.914Z,5.43
2022-10-13T22:46:14.321Z,5.20
2022-10-13T22:48:41.964Z,5.25
2022-10-13T22:51:10.305Z,5.05
2022-10-13T22:53:37.643Z,5.22
2022-10-13T22:56:14.936Z,4.90
2022-10-13T22:58:43.046Z,6.18
2022-10-13T23:01:13.538Z,5.13
2022-10-13T23:03:41.592Z,5.32
2022-10-13T23:06:13.440Z,5.90
2022-10-13T23:08:40.935Z,5.90
2022-10-13T23:11:08.603Z,5.10
2022-10-13T23:13:35.939Z,5.47
2022-10-13T23:16:05.175Z,5.10
2022-10-13T23:18:32.568Z,5.05
2022-10-13T23:20:59.823Z,6.13
2022-10-13T23:23:27.146Z,5.22
2022-10-13T23:25:54.359Z,5.43
2022-10-13T23:28:21.586Z,5.95
2022-10-13T23:30:48.893Z,5.57
2022-10-13T23:33:16.108Z,5.75
2022-10-13T23:35:43.330Z,6.53
2022-10-13T23:38:10.542Z,5.65
2022-10-13T23:40:37.817Z,5.43
2022-10-13T23:43:05.034Z,6.57
2022-10-13T23:45:32.272Z,5.80
2022-10-13T23:47:59.527Z,5.28
2022-10-13T23:50:26.784Z,5.97
2022-10-13T23:52:56.376Z,5.53
2022-10-13T23:55:23.631Z,5.85
2022-10-13T23:57:50.881Z,6.15
